ドゥアラ の空港の天気 - METARとTAF

ドゥアラ国際空港 ( FKKD / DLA ) - カメルーン ドゥアラ
飛行場実況気象(Metar)
観測時間10/18 08:00 WAT (10/18 07:00 UTC)
風向・風速東 2m/s
視程2700m
天気現象雷 もや
全天の4割程度の雲 雲底高度 120m
全天の8割程度の雲 雲底高度 430m
少しの雲 雲底高度 520m
気温25℃
湿度100%
気圧1013hPa
METARFKKD 180700Z 10004KT 2700 TS BR SCT004 BKN014 FEW017CB 25/25 Q1013 BECMG 6000 NSW
過去の天気等 Google飛行場航空写真 Wunderground天気予報

過去48時間のMETAR

飛行場予報(TAF)
発表時間: 10/18 07:00 WAT (10/18 06:00 UTC)
予報対象時間: 18日7時 WAT ~ 19日13時 WAT
風向・風速不定 3m/s
視程8000m
全天の8割程度の雲 雲底高度 400m
少しの積乱雲 雲底高度 490m
18日7時 WAT ~ 18日9時 WAT に一時的に
視程2000m
天気現象雷 もや
18日9時 WAT から 確率 30% で
天気現象弱い雷雨
18日15時 WAT から 確率 40% で
視程4000m
天気現象弱い雷雨
TAF AMD FKKD 180600Z 1806/1912 VRB06KT 8000 BKN013 FEW016CB
TEMPO 1806/1808 2000 TS BR
PROB30 1808/1810 -TSRA
PROB40 1814/1821 4000 -TSRA